sensor_id;sensor_type;location;lat;lon;timestamp;temperature;humidity
19522;DHT22;9905;52.126;5.596;2023-12-20T00:00:28;6.40;99.90
19522;DHT22;9905;52.126;5.596;2023-12-20T00:02:57;6.40;99.90
19522;DHT22;9905;52.126;5.596;2023-12-20T00:05:24;6.40;99.90
19522;DHT22;9905;52.126;5.596;2023-12-20T00:07:51;6.40;99.90
19522;DHT22;9905;52.126;5.596;2023-12-20T00:10:18;6.40;99.90
19522;DHT22;9905;52.126;5.596;2023-12-20T00:12:45;6.30;99.90
19522;DHT22;9905;52.126;5.596;2023-12-20T00:15:11;6.30;99.90
19522;DHT22;9905;52.126;5.596;2023-12-20T00:17:38;6.30;99.90
19522;DHT22;9905;52.126;5.596;2023-12-20T00:20:07;6.30;99.90
19522;DHT22;9905;52.126;5.596;2023-12-20T00:22:34;6.30;99.90
19522;DHT22;9905;52.126;5.596;2023-12-20T00:25:01;6.30;99.90
19522;DHT22;9905;52.126;5.596;2023-12-20T00:27:28;6.30;99.90
19522;DHT22;9905;52.126;5.596;2023-12-20T00:29:55;6.30;99.90
19522;DHT22;9905;52.126;5.596;2023-12-20T00:32:22;6.30;99.90
19522;DHT22;9905;52.126;5.596;2023-12-20T00:34:48;6.30;99.90
19522;DHT22;9905;52.126;5.596;2023-12-20T00:37:17;6.30;99.90
19522;DHT22;9905;52.126;5.596;2023-12-20T00:39:43;6.20;99.90
19522;DHT22;9905;52.126;5.596;2023-12-20T00:42:10;6.20;99.90
19522;DHT22;9905;52.126;5.596;2023-12-20T00:44:37;6.20;99.90
19522;DHT22;9905;52.126;5.596;2023-12-20T00:47:04;6.20;99.90
19522;DHT22;9905;52.126;5.596;2023-12-20T00:49:30;6.20;99.90
19522;DHT22;9905;52.126;5.596;2023-12-20T00:51:57;6.10;99.90
19522;DHT22;9905;52.126;5.596;2023-12-20T00:54:25;6.10;99.90
19522;DHT22;9905;52.126;5.596;2023-12-20T00:56:52;6.00;99.90
19522;DHT22;9905;52.126;5.596;2023-12-20T00:59:19;6.00;99.90
19522;DHT22;9905;52.126;5.596;2023-12-20T01:01:46;6.00;99.90
19522;DHT22;9905;52.126;5.596;2023-12-20T01:04:12;6.00;99.90
19522;DHT22;9905;52.126;5.596;2023-12-20T01:06:39;5.90;99.90
19522;DHT22;9905;52.126;5.596;2023-12-20T01:09:06;5.90;99.90
19522;DHT22;9905;52.126;5.596;2023-12-20T01:11:34;6.00;99.90
19522;DHT22;9905;52.126;5.596;2023-12-20T01:14:00;5.90;99.90
19522;DHT22;9905;52.126;5.596;2023-12-20T01:16:27;5.90;99.90
19522;DHT22;9905;52.126;5.596;2023-12-20T01:18:54;5.90;99.90
19522;DHT22;9905;52.126;5.596;2023-12-20T01:21:21;5.80;99.90
19522;DHT22;9905;52.126;5.596;2023-12-20T01:23:47;5.80;99.90
19522;DHT22;9905;52.126;5.596;2023-12-20T01:26:15;5.80;99.90
19522;DHT22;9905;52.126;5.596;2023-12-20T01:28:43;5.80;99.90
19522;DHT22;9905;52.126;5.596;2023-12-20T01:31:10;5.80;99.90
19522;DHT22;9905;52.126;5.596;2023-12-20T01:33:37;5.80;99.90
19522;DHT22;9905;52.126;5.596;2023-12-20T01:36:04;5.70;99.90
19522;DHT22;9905;52.126;5.596;2023-12-20T01:38:31;5.70;99.90
19522;DHT22;9905;52.126;5.596;2023-12-20T01:40:58;5.70;99.90
19522;DHT22;9905;52.126;5.596;2023-12-20T01:43:25;5.70;99.90
19522;DHT22;9905;52.126;5.596;2023-12-20T01:45:55;5.70;99.90
19522;DHT22;9905;52.126;5.596;2023-12-20T01:48:23;5.70;99.90
19522;DHT22;9905;52.126;5.596;2023-12-20T01:50:51;5.70;99.90
19522;DHT22;9905;52.126;5.596;2023-12-20T01:53:19;5.70;99.90
19522;DHT22;9905;52.126;5.596;2023-12-20T01:55:48;5.70;99.90
19522;DHT22;9905;52.126;5.596;2023-12-20T01:58:17;5.70;99.90
19522;DHT22;9905;52.126;5.596;2023-12-20T02:00:44;5.70;99.90
19522;DHT22;9905;52.126;5.596;2023-12-20T02:03:12;5.70;99.90
19522;DHT22;9905;52.126;5.596;2023-12-20T02:05:39;5.70;99.90
19522;DHT22;9905;52.126;5.596;2023-12-20T02:08:07;5.70;99.90
19522;DHT22;9905;52.126;5.596;2023-12-20T02:10:34;5.70;99.90
19522;DHT22;9905;52.126;5.596;2023-12-20T02:13:01;5.70;99.90
19522;DHT22;9905;52.126;5.596;2023-12-20T02:15:28;5.70;99.90
19522;DHT22;9905;52.126;5.596;2023-12-20T02:17:54;5.70;99.90
19522;DHT22;9905;52.126;5.596;2023-12-20T02:20:22;5.70;99.90
19522;DHT22;9905;52.126;5.596;2023-12-20T02:22:50;5.70;99.90
19522;DHT22;9905;52.126;5.596;2023-12-20T02:25:17;5.70;99.90
19522;DHT22;9905;52.126;5.596;2023-12-20T02:27:44;5.70;99.90
19522;DHT22;9905;52.126;5.596;2023-12-20T02:30:11;5.80;99.90
19522;DHT22;9905;52.126;5.596;2023-12-20T02:32:38;5.70;99.90
19522;DHT22;9905;52.126;5.596;2023-12-20T02:35:05;5.80;99.90
19522;DHT22;9905;52.126;5.596;2023-12-20T02:37:32;5.70;99.90
19522;DHT22;9905;52.126;5.596;2023-12-20T02:40:01;5.80;99.90
19522;DHT22;9905;52.126;5.596;2023-12-20T02:42:28;5.80;99.90
19522;DHT22;9905;52.126;5.596;2023-12-20T02:44:55;5.80;99.90
19522;DHT22;9905;52.126;5.596;2023-12-20T02:47:21;5.90;99.90
19522;DHT22;9905;52.126;5.596;2023-12-20T02:49:48;5.90;99.90
19522;DHT22;9905;52.126;5.596;2023-12-20T02:52:15;5.90;99.90
19522;DHT22;9905;52.126;5.596;2023-12-20T02:54:42;6.00;99.90
19522;DHT22;9905;52.126;5.596;2023-12-20T02:57:10;6.00;99.90
19522;DHT22;9905;52.126;5.596;2023-12-20T02:59:37;6.00;99.90
19522;DHT22;9905;52.126;5.596;2023-12-20T03:02:03;6.00;99.90
19522;DHT22;9905;52.126;5.596;2023-12-20T03:04:30;6.00;99.90
19522;DHT22;9905;52.126;5.596;2023-12-20T03:06:57;5.90;99.90
19522;DHT22;9905;52.126;5.596;2023-12-20T03:09:23;5.90;99.90
19522;DHT22;9905;52.126;5.596;2023-12-20T03:11:50;5.90;99.90
19522;DHT22;9905;52.126;5.596;2023-12-20T03:14:18;5.90;99.90
19522;DHT22;9905;52.126;5.596;2023-12-20T03:16:47;5.90;99.90
19522;DHT22;9905;52.126;5.596;2023-12-20T03:19:14;5.90;99.90
19522;DHT22;9905;52.126;5.596;2023-12-20T03:21:41;5.90;99.90
19522;DHT22;9905;52.126;5.596;2023-12-20T03:24:08;6.00;99.90
19522;DHT22;9905;52.126;5.596;2023-12-20T03:26:35;5.90;99.90
19522;DHT22;9905;52.126;5.596;2023-12-20T03:29:01;5.90;99.90
19522;DHT22;9905;52.126;5.596;2023-12-20T03:31:29;5.90;99.90
19522;DHT22;9905;52.126;5.596;2023-12-20T03:33:56;5.90;99.90
19522;DHT22;9905;52.126;5.596;2023-12-20T03:36:23;5.90;99.90
19522;DHT22;9905;52.126;5.596;2023-12-20T03:38:49;5.90;99.90
19522;DHT22;9905;52.126;5.596;2023-12-20T03:41:16;5.90;99.90
19522;DHT22;9905;52.126;5.596;2023-12-20T03:43:43;5.90;99.90
19522;DHT22;9905;52.126;5.596;2023-12-20T03:46:09;5.90;99.90
19522;DHT22;9905;52.126;5.596;2023-12-20T03:48:38;5.90;99.90
19522;DHT22;9905;52.126;5.596;2023-12-20T03:51:05;6.00;99.90
19522;DHT22;9905;52.126;5.596;2023-12-20T03:53:31;6.00;99.90
19522;DHT22;9905;52.126;5.596;2023-12-20T03:55:59;5.90;99.90
19522;DHT22;9905;52.126;5.596;2023-12-20T03:58:25;6.00;99.90
19522;DHT22;9905;52.126;5.596;2023-12-20T04:00:52;6.00;99.90
19522;DHT22;9905;52.126;5.596;2023-12-20T04:03:19;6.00;99.90
19522;DHT22;9905;52.126;5.596;2023-12-20T04:05:47;6.10;99.90
19522;DHT22;9905;52.126;5.596;2023-12-20T04:08:14;6.10;99.90
19522;DHT22;9905;52.126;5.596;2023-12-20T04:10:41;6.10;99.90
19522;DHT22;9905;52.126;5.596;2023-12-20T04:13:07;6.10;99.90
19522;DHT22;9905;52.126;5.596;2023-12-20T04:15:34;6.10;99.90
19522;DHT22;9905;52.126;5.596;2023-12-20T04:18:01;6.20;99.90
19522;DHT22;9905;52.126;5.596;2023-12-20T04:20:28;6.30;99.90
19522;DHT22;9905;52.126;5.596;2023-12-20T04:22:56;6.30;99.90
19522;DHT22;9905;52.126;5.596;2023-12-20T04:25:22;6.40;99.90
19522;DHT22;9905;52.126;5.596;2023-12-20T04:27:49;6.40;99.90
19522;DHT22;9905;52.126;5.596;2023-12-20T04:30:16;6.40;99.90
19522;DHT22;9905;52.126;5.596;2023-12-20T04:32:42;6.40;99.90
19522;DHT22;9905;52.126;5.596;2023-12-20T04:35:09;6.40;99.90
19522;DHT22;9905;52.126;5.596;2023-12-20T04:37:36;6.40;99.90
19522;DHT22;9905;52.126;5.596;2023-12-20T04:40:05;6.50;99.90
19522;DHT22;9905;52.126;5.596;2023-12-20T04:42:33;6.50;99.90
19522;DHT22;9905;52.126;5.596;2023-12-20T04:45:00;6.50;99.90
19522;DHT22;9905;52.126;5.596;2023-12-20T04:47:27;6.50;99.90
19522;DHT22;9905;52.126;5.596;2023-12-20T04:49:53;6.50;99.90
19522;DHT22;9905;52.126;5.596;2023-12-20T04:52:20;6.60;99.90
19522;DHT22;9905;52.126;5.596;2023-12-20T04:54:47;6.60;99.90
19522;DHT22;9905;52.126;5.596;2023-12-20T04:57:15;6.70;99.90
19522;DHT22;9905;52.126;5.596;2023-12-20T04:59:42;6.70;99.90
19522;DHT22;9905;52.126;5.596;2023-12-20T05:02:08;6.70;99.90
19522;DHT22;9905;52.126;5.596;2023-12-20T05:04:35;6.70;99.90
19522;DHT22;9905;52.126;5.596;2023-12-20T05:07:02;6.80;99.90
19522;DHT22;9905;52.126;5.596;2023-12-20T05:09:30;6.80;99.90
19522;DHT22;9905;52.126;5.596;2023-12-20T05:11:57;6.80;99.90
19522;DHT22;9905;52.126;5.596;2023-12-20T05:14:25;6.90;99.90
19522;DHT22;9905;52.126;5.596;2023-12-20T05:16:51;6.90;99.90
19522;DHT22;9905;52.126;5.596;2023-12-20T05:19:18;6.90;99.90
19522;DHT22;9905;52.126;5.596;2023-12-20T05:21:45;7.00;99.90
19522;DHT22;9905;52.126;5.596;2023-12-20T05:24:12;7.00;99.90
19522;DHT22;9905;52.126;5.596;2023-12-20T05:26:38;7.00;99.90
19522;DHT22;9905;52.126;5.596;2023-12-20T05:29:05;7.10;99.90
19522;DHT22;9905;52.126;5.596;2023-12-20T05:31:33;7.00;99.90
19522;DHT22;9905;52.126;5.596;2023-12-20T05:34:00;7.10;99.90
19522;DHT22;9905;52.126;5.596;2023-12-20T05:36:27;7.10;99.90
19522;DHT22;9905;52.126;5.596;2023-12-20T05:38:54;7.10;99.90
19522;DHT22;9905;52.126;5.596;2023-12-20T05:41:20;7.10;99.90
19522;DHT22;9905;52.126;5.596;2023-12-20T05:43:48;7.20;99.90
19522;DHT22;9905;52.126;5.596;2023-12-20T05:46:15;7.20;99.90
19522;DHT22;9905;52.126;5.596;2023-12-20T05:48:43;7.20;99.90
19522;DHT22;9905;52.126;5.596;2023-12-20T05:51:11;7.20;99.90
19522;DHT22;9905;52.126;5.596;2023-12-20T05:53:38;7.20;99.90
19522;DHT22;9905;52.126;5.596;2023-12-20T05:56:05;7.20;99.90
19522;DHT22;9905;52.126;5.596;2023-12-20T05:58:32;7.20;99.90
19522;DHT22;9905;52.126;5.596;2023-12-20T06:00:59;7.20;99.90
19522;DHT22;9905;52.126;5.596;2023-12-20T06:03:26;7.20;99.90
19522;DHT22;9905;52.126;5.596;2023-12-20T06:05:54;7.20;99.90
19522;DHT22;9905;52.126;5.596;2023-12-20T06:08:21;7.20;99.90
19522;DHT22;9905;52.126;5.596;2023-12-20T06:10:47;7.20;99.90
19522;DHT22;9905;52.126;5.596;2023-12-20T06:13:14;7.20;99.90
19522;DHT22;9905;52.126;5.596;2023-12-20T06:15:41;7.30;99.90
19522;DHT22;9905;52.126;5.596;2023-12-20T06:18:08;7.30;99.90
19522;DHT22;9905;52.126;5.596;2023-12-20T06:20:36;7.30;99.90
19522;DHT22;9905;52.126;5.596;2023-12-20T06:23:04;7.20;99.90
19522;DHT22;9905;52.126;5.596;2023-12-20T06:25:30;7.30;99.90
19522;DHT22;9905;52.126;5.596;2023-12-20T06:27:57;7.30;99.90
19522;DHT22;9905;52.126;5.596;2023-12-20T06:30:24;7.30;99.90
19522;DHT22;9905;52.126;5.596;2023-12-20T06:32:53;7.30;99.90
19522;DHT22;9905;52.126;5.596;2023-12-20T06:35:20;7.30;99.90
19522;DHT22;9905;52.126;5.596;2023-12-20T06:37:46;7.30;99.90
19522;DHT22;9905;52.126;5.596;2023-12-20T06:40:15;7.40;99.90
19522;DHT22;9905;52.126;5.596;2023-12-20T06:42:42;7.30;99.90
19522;DHT22;9905;52.126;5.596;2023-12-20T06:45:10;7.30;99.90
19522;DHT22;9905;52.126;5.596;2023-12-20T06:47:37;7.40;99.90
19522;DHT22;9905;52.126;5.596;2023-12-20T06:50:04;7.40;99.90
19522;DHT22;9905;52.126;5.596;2023-12-20T06:52:33;7.40;99.90
19522;DHT22;9905;52.126;5.596;2023-12-20T06:55:00;7.40;99.90
19522;DHT22;9905;52.126;5.596;2023-12-20T06:57:29;7.40;99.90
19522;DHT22;9905;52.126;5.596;2023-12-20T06:59:56;7.40;99.90
19522;DHT22;9905;52.126;5.596;2023-12-20T07:02:23;7.40;99.90
19522;DHT22;9905;52.126;5.596;2023-12-20T07:04:50;7.40;99.90
19522;DHT22;9905;52.126;5.596;2023-12-20T07:07:16;7.40;99.90
19522;DHT22;9905;52.126;5.596;2023-12-20T07:09:43;7.40;99.90
19522;DHT22;9905;52.126;5.596;2023-12-20T07:12:10;7.40;99.90
19522;DHT22;9905;52.126;5.596;2023-12-20T07:14:37;7.40;99.90
19522;DHT22;9905;52.126;5.596;2023-12-20T07:17:04;7.40;99.90
19522;DHT22;9905;52.126;5.596;2023-12-20T07:19:30;7.40;99.90
19522;DHT22;9905;52.126;5.596;2023-12-20T07:21:58;7.40;99.90
19522;DHT22;9905;52.126;5.596;2023-12-20T07:24:24;7.40;99.90
19522;DHT22;9905;52.126;5.596;2023-12-20T07:26:51;7.40;99.90
19522;DHT22;9905;52.126;5.596;2023-12-20T07:29:18;7.40;99.90
19522;DHT22;9905;52.126;5.596;2023-12-20T07:31:46;7.40;99.90
19522;DHT22;9905;52.126;5.596;2023-12-20T07:34:12;7.40;99.90
19522;DHT22;9905;52.126;5.596;2023-12-20T07:36:39;7.40;99.90
19522;DHT22;9905;52.126;5.596;2023-12-20T07:39:06;7.40;99.90
19522;DHT22;9905;52.126;5.596;2023-12-20T07:41:33;7.40;99.90
19522;DHT22;9905;52.126;5.596;2023-12-20T07:43:59;7.40;99.90
19522;DHT22;9905;52.126;5.596;2023-12-20T07:46:26;7.40;99.90
19522;DHT22;9905;52.126;5.596;2023-12-20T07:48:54;7.40;99.90
19522;DHT22;9905;52.126;5.596;2023-12-20T07:51:21;7.50;99.90
19522;DHT22;9905;52.126;5.596;2023-12-20T07:53:48;7.50;99.90
19522;DHT22;9905;52.126;5.596;2023-12-20T07:56:15;7.50;99.90
19522;DHT22;9905;52.126;5.596;2023-12-20T07:58:41;7.50;99.90
19522;DHT22;9905;52.126;5.596;2023-12-20T08:01:08;7.50;99.90
19522;DHT22;9905;52.126;5.596;2023-12-20T08:03:35;7.60;99.90
19522;DHT22;9905;52.126;5.596;2023-12-20T08:06:04;7.60;99.90
19522;DHT22;9905;52.126;5.596;2023-12-20T08:08:31;7.60;99.90
19522;DHT22;9905;52.126;5.596;2023-12-20T08:10:58;7.60;99.90
19522;DHT22;9905;52.126;5.596;2023-12-20T08:13:25;7.60;99.90
19522;DHT22;9905;52.126;5.596;2023-12-20T08:15:53;7.60;99.90
19522;DHT22;9905;52.126;5.596;2023-12-20T08:18:21;7.60;99.90
19522;DHT22;9905;52.126;5.596;2023-12-20T08:20:48;7.60;99.90
19522;DHT22;9905;52.126;5.596;2023-12-20T08:23:16;7.60;99.90
19522;DHT22;9905;52.126;5.596;2023-12-20T08:25:43;7.60;99.90
19522;DHT22;9905;52.126;5.596;2023-12-20T08:28:09;7.70;99.90
19522;DHT22;9905;52.126;5.596;2023-12-20T08:30:36;7.70;99.90
19522;DHT22;9905;52.126;5.596;2023-12-20T08:33:03;7.70;99.90
19522;DHT22;9905;52.126;5.596;2023-12-20T08:35:30;7.70;99.90
19522;DHT22;9905;52.126;5.596;2023-12-20T08:37:57;7.70;99.90
19522;DHT22;9905;52.126;5.596;2023-12-20T08:40:25;7.70;99.90
19522;DHT22;9905;52.126;5.596;2023-12-20T08:42:52;7.70;99.90
19522;DHT22;9905;52.126;5.596;2023-12-20T08:45:19;7.70;99.90
19522;DHT22;9905;52.126;5.596;2023-12-20T08:47:45;7.70;99.90
19522;DHT22;9905;52.126;5.596;2023-12-20T08:50:12;7.70;99.90
19522;DHT22;9905;52.126;5.596;2023-12-20T08:52:40;7.80;99.90
19522;DHT22;9905;52.126;5.596;2023-12-20T08:55:08;7.80;99.90
19522;DHT22;9905;52.126;5.596;2023-12-20T08:57:36;7.80;99.90
19522;DHT22;9905;52.126;5.596;2023-12-20T09:00:04;7.80;99.90
19522;DHT22;9905;52.126;5.596;2023-12-20T09:02:32;7.80;99.90
19522;DHT22;9905;52.126;5.596;2023-12-20T09:05:01;7.80;99.90
19522;DHT22;9905;52.126;5.596;2023-12-20T09:07:28;7.80;99.90
19522;DHT22;9905;52.126;5.596;2023-12-20T09:09:56;7.80;99.90
19522;DHT22;9905;52.126;5.596;2023-12-20T09:12:22;7.80;99.90
19522;DHT22;9905;52.126;5.596;2023-12-20T09:14:51;7.80;99.90
19522;DHT22;9905;52.126;5.596;2023-12-20T09:17:18;7.70;99.90
19522;DHT22;9905;52.126;5.596;2023-12-20T09:19:46;7.70;99.90
19522;DHT22;9905;52.126;5.596;2023-12-20T09:22:12;7.70;99.90
19522;DHT22;9905;52.126;5.596;2023-12-20T09:24:39;7.70;99.90
19522;DHT22;9905;52.126;5.596;2023-12-20T09:27:06;7.70;99.90
19522;DHT22;9905;52.126;5.596;2023-12-20T09:29:33;7.70;99.90
19522;DHT22;9905;52.126;5.596;2023-12-20T09:32:01;7.70;99.90
19522;DHT22;9905;52.126;5.596;2023-12-20T09:34:28;7.70;99.90
19522;DHT22;9905;52.126;5.596;2023-12-20T09:36:55;7.70;99.90
19522;DHT22;9905;52.126;5.596;2023-12-20T09:39:22;7.70;99.90
19522;DHT22;9905;52.126;5.596;2023-12-20T09:41:56;7.70;99.90
19522;DHT22;9905;52.126;5.596;2023-12-20T09:44:26;7.70;99.90
19522;DHT22;9905;52.126;5.596;2023-12-20T09:46:55;7.70;99.90
19522;DHT22;9905;52.126;5.596;2023-12-20T09:49:23;7.70;99.90
19522;DHT22;9905;52.126;5.596;2023-12-20T09:51:53;7.70;99.90
19522;DHT22;9905;52.126;5.596;2023-12-20T09:54:21;7.80;99.90
19522;DHT22;9905;52.126;5.596;2023-12-20T09:56:48;7.80;99.90
19522;DHT22;9905;52.126;5.596;2023-12-20T09:59:15;7.90;99.90
19522;DHT22;9905;52.126;5.596;2023-12-20T10:01:43;7.90;99.90
19522;DHT22;9905;52.126;5.596;2023-12-20T10:04:12;7.90;99.90
19522;DHT22;9905;52.126;5.596;2023-12-20T10:06:41;8.00;99.90
19522;DHT22;9905;52.126;5.596;2023-12-20T10:09:07;8.00;99.90
19522;DHT22;9905;52.126;5.596;2023-12-20T10:11:35;8.10;99.90
19522;DHT22;9905;52.126;5.596;2023-12-20T10:14:03;8.10;99.90
19522;DHT22;9905;52.126;5.596;2023-12-20T10:16:30;8.20;99.90
19522;DHT22;9905;52.126;5.596;2023-12-20T10:18:58;8.20;99.90
19522;DHT22;9905;52.126;5.596;2023-12-20T10:21:26;8.20;99.90
19522;DHT22;9905;52.126;5.596;2023-12-20T10:23:57;8.30;99.90
19522;DHT22;9905;52.126;5.596;2023-12-20T10:26:25;8.30;99.90
19522;DHT22;9905;52.126;5.596;2023-12-20T10:28:53;8.30;99.90
19522;DHT22;9905;52.126;5.596;2023-12-20T10:31:27;8.40;99.90
19522;DHT22;9905;52.126;5.596;2023-12-20T10:33:56;8.40;99.90
19522;DHT22;9905;52.126;5.596;2023-12-20T10:36:24;8.40;99.90
19522;DHT22;9905;52.126;5.596;2023-12-20T10:38:53;8.40;99.90
19522;DHT22;9905;52.126;5.596;2023-12-20T10:41:24;8.50;99.90
19522;DHT22;9905;52.126;5.596;2023-12-20T10:43:54;8.50;99.90
19522;DHT22;9905;52.126;5.596;2023-12-20T10:46:21;8.50;99.90
19522;DHT22;9905;52.126;5.596;2023-12-20T10:48:49;8.50;99.90
19522;DHT22;9905;52.126;5.596;2023-12-20T10:51:18;8.50;99.90
19522;DHT22;9905;52.126;5.596;2023-12-20T10:53:47;8.50;99.90
19522;DHT22;9905;52.126;5.596;2023-12-20T10:56:16;8.60;99.90
19522;DHT22;9905;52.126;5.596;2023-12-20T10:58:44;8.70;99.90
19522;DHT22;9905;52.126;5.596;2023-12-20T11:01:13;8.70;99.90
19522;DHT22;9905;52.126;5.596;2023-12-20T11:03:44;8.80;99.90
19522;DHT22;9905;52.126;5.596;2023-12-20T11:06:23;8.80;99.90
19522;DHT22;9905;52.126;5.596;2023-12-20T11:08:55;8.90;99.90
19522;DHT22;9905;52.126;5.596;2023-12-20T11:11:37;8.90;99.90
19522;DHT22;9905;52.126;5.596;2023-12-20T11:14:08;9.00;99.90
19522;DHT22;9905;52.126;5.596;2023-12-20T11:16:41;9.00;99.90
19522;DHT22;9905;52.126;5.596;2023-12-20T11:19:07;9.00;99.90
19522;DHT22;9905;52.126;5.596;2023-12-20T11:21:34;9.10;99.90
19522;DHT22;9905;52.126;5.596;2023-12-20T11:24:02;9.10;99.90
19522;DHT22;9905;52.126;5.596;2023-12-20T11:26:30;9.10;99.90
19522;DHT22;9905;52.126;5.596;2023-12-20T11:29:31;9.10;99.90
19522;DHT22;9905;52.126;5.596;2023-12-20T11:32:00;9.20;99.90
19522;DHT22;9905;52.126;5.596;2023-12-20T11:34:27;9.10;99.90
19522;DHT22;9905;52.126;5.596;2023-12-20T11:36:58;9.10;99.90
19522;DHT22;9905;52.126;5.596;2023-12-20T11:39:26;9.10;99.90
19522;DHT22;9905;52.126;5.596;2023-12-20T11:41:55;9.10;99.90
19522;DHT22;9905;52.126;5.596;2023-12-20T11:44:25;9.10;99.90
19522;DHT22;9905;52.126;5.596;2023-12-20T11:46:55;9.10;99.90
19522;DHT22;9905;52.126;5.596;2023-12-20T11:49:24;9.20;99.90
19522;DHT22;9905;52.126;5.596;2023-12-20T11:51:51;9.20;99.90
19522;DHT22;9905;52.126;5.596;2023-12-20T11:54:18;9.20;99.90
19522;DHT22;9905;52.126;5.596;2023-12-20T11:56:45;9.20;99.90
19522;DHT22;9905;52.126;5.596;2023-12-20T11:59:12;9.20;99.90
19522;DHT22;9905;52.126;5.596;2023-12-20T12:01:39;9.20;99.90
19522;DHT22;9905;52.126;5.596;2023-12-20T12:04:07;9.20;99.90
19522;DHT22;9905;52.126;5.596;2023-12-20T12:06:34;9.30;99.90
19522;DHT22;9905;52.126;5.596;2023-12-20T12:09:01;9.30;99.90
19522;DHT22;9905;52.126;5.596;2023-12-20T12:11:29;9.30;99.90
19522;DHT22;9905;52.126;5.596;2023-12-20T12:13:56;9.20;99.90
19522;DHT22;9905;52.126;5.596;2023-12-20T12:16:23;9.30;99.90
19522;DHT22;9905;52.126;5.596;2023-12-20T12:18:55;9.30;99.90
19522;DHT22;9905;52.126;5.596;2023-12-20T12:21:24;9.30;99.90
19522;DHT22;9905;52.126;5.596;2023-12-20T12:23:51;9.30;99.90
19522;DHT22;9905;52.126;5.596;2023-12-20T12:26:18;9.20;99.90
19522;DHT22;9905;52.126;5.596;2023-12-20T12:28:45;9.30;99.90
19522;DHT22;9905;52.126;5.596;2023-12-20T12:31:15;9.30;99.90
19522;DHT22;9905;52.126;5.596;2023-12-20T12:33:42;9.30;99.90
19522;DHT22;9905;52.126;5.596;2023-12-20T12:36:10;9.30;99.90
19522;DHT22;9905;52.126;5.596;2023-12-20T12:38:38;9.30;99.90
19522;DHT22;9905;52.126;5.596;2023-12-20T12:41:05;9.30;99.90
19522;DHT22;9905;52.126;5.596;2023-12-20T12:43:32;9.30;99.90
19522;DHT22;9905;52.126;5.596;2023-12-20T12:46:00;9.30;99.90
19522;DHT22;9905;52.126;5.596;2023-12-20T12:48:27;9.30;99.90
19522;DHT22;9905;52.126;5.596;2023-12-20T12:50:54;9.30;99.90
19522;DHT22;9905;52.126;5.596;2023-12-20T12:53:22;9.30;99.90
19522;DHT22;9905;52.126;5.596;2023-12-20T12:55:50;9.30;99.90
19522;DHT22;9905;52.126;5.596;2023-12-20T12:58:17;9.40;99.90
19522;DHT22;9905;52.126;5.596;2023-12-20T13:00:44;9.40;99.90
19522;DHT22;9905;52.126;5.596;2023-12-20T13:03:10;9.30;99.90
19522;DHT22;9905;52.126;5.596;2023-12-20T13:05:37;9.30;99.90
19522;DHT22;9905;52.126;5.596;2023-12-20T13:08:05;9.30;99.90
19522;DHT22;9905;52.126;5.596;2023-12-20T13:10:32;9.30;99.90
19522;DHT22;9905;52.126;5.596;2023-12-20T13:13:00;9.30;99.90
19522;DHT22;9905;52.126;5.596;2023-12-20T13:15:26;9.30;99.90
19522;DHT22;9905;52.126;5.596;2023-12-20T13:17:53;9.30;99.90
19522;DHT22;9905;52.126;5.596;2023-12-20T13:20:20;9.30;99.90
19522;DHT22;9905;52.126;5.596;2023-12-20T13:22:47;9.30;99.90
19522;DHT22;9905;52.126;5.596;2023-12-20T13:25:14;9.30;99.90
19522;DHT22;9905;52.126;5.596;2023-12-20T13:27:41;9.20;99.90
19522;DHT22;9905;52.126;5.596;2023-12-20T13:30:10;9.30;99.90
19522;DHT22;9905;52.126;5.596;2023-12-20T13:32:37;9.20;99.90
19522;DHT22;9905;52.126;5.596;2023-12-20T13:35:05;9.20;99.90
19522;DHT22;9905;52.126;5.596;2023-12-20T13:37:31;9.30;99.90
19522;DHT22;9905;52.126;5.596;2023-12-20T13:39:58;9.20;99.90
19522;DHT22;9905;52.126;5.596;2023-12-20T13:42:25;9.20;99.90
19522;DHT22;9905;52.126;5.596;2023-12-20T13:44:52;9.20;99.90
19522;DHT22;9905;52.126;5.596;2023-12-20T13:47:20;9.20;99.90
19522;DHT22;9905;52.126;5.596;2023-12-20T13:49:47;9.20;99.90
19522;DHT22;9905;52.126;5.596;2023-12-20T13:52:14;9.20;99.90
19522;DHT22;9905;52.126;5.596;2023-12-20T13:54:41;9.20;99.90
19522;DHT22;9905;52.126;5.596;2023-12-20T13:57:08;9.20;99.90
19522;DHT22;9905;52.126;5.596;2023-12-20T13:59:35;9.20;99.90
19522;DHT22;9905;52.126;5.596;2023-12-20T14:02:02;9.20;99.90
19522;DHT22;9905;52.126;5.596;2023-12-20T14:04:30;9.20;99.90
19522;DHT22;9905;52.126;5.596;2023-12-20T14:06:57;9.20;99.90
19522;DHT22;9905;52.126;5.596;2023-12-20T14:09:24;9.20;99.90
19522;DHT22;9905;52.126;5.596;2023-12-20T14:11:51;9.20;99.90
19522;DHT22;9905;52.126;5.596;2023-12-20T14:14:17;9.20;99.90
19522;DHT22;9905;52.126;5.596;2023-12-20T14:16:44;9.20;99.90
19522;DHT22;9905;52.126;5.596;2023-12-20T14:19:11;9.20;99.90
19522;DHT22;9905;52.126;5.596;2023-12-20T14:21:39;9.20;99.90
19522;DHT22;9905;52.126;5.596;2023-12-20T14:24:06;9.20;99.90
19522;DHT22;9905;52.126;5.596;2023-12-20T14:26:33;9.20;99.90
19522;DHT22;9905;52.126;5.596;2023-12-20T14:29:00;9.20;99.90
19522;DHT22;9905;52.126;5.596;2023-12-20T14:31:26;9.10;99.90
19522;DHT22;9905;52.126;5.596;2023-12-20T14:33:53;9.10;99.90
19522;DHT22;9905;52.126;5.596;2023-12-20T14:36:21;9.10;99.90
19522;DHT22;9905;52.126;5.596;2023-12-20T14:38:49;9.10;99.90
19522;DHT22;9905;52.126;5.596;2023-12-20T14:41:16;9.10;99.90
19522;DHT22;9905;52.126;5.596;2023-12-20T14:43:44;9.10;99.90
19522;DHT22;9905;52.126;5.596;2023-12-20T14:46:12;9.10;99.90
19522;DHT22;9905;52.126;5.596;2023-12-20T14:48:38;9.10;99.90
19522;DHT22;9905;52.126;5.596;2023-12-20T14:51:05;9.10;99.90
19522;DHT22;9905;52.126;5.596;2023-12-20T14:53:32;9.10;99.90
19522;DHT22;9905;52.126;5.596;2023-12-20T14:56:03;9.10;99.90
19522;DHT22;9905;52.126;5.596;2023-12-20T14:58:30;9.10;99.90
19522;DHT22;9905;52.126;5.596;2023-12-20T15:00:57;9.10;99.90
19522;DHT22;9905;52.126;5.596;2023-12-20T15:03:24;9.10;99.90
19522;DHT22;9905;52.126;5.596;2023-12-20T15:05:50;9.10;99.90
19522;DHT22;9905;52.126;5.596;2023-12-20T15:08:17;9.10;99.90
19522;DHT22;9905;52.126;5.596;2023-12-20T15:10:44;9.10;99.90
19522;DHT22;9905;52.126;5.596;2023-12-20T15:13:12;9.10;99.90
19522;DHT22;9905;52.126;5.596;2023-12-20T15:15:39;9.10;99.90
19522;DHT22;9905;52.126;5.596;2023-12-20T15:18:06;9.10;99.90
19522;DHT22;9905;52.126;5.596;2023-12-20T15:20:32;9.10;99.90
19522;DHT22;9905;52.126;5.596;2023-12-20T15:23:02;9.10;99.90
19522;DHT22;9905;52.126;5.596;2023-12-20T15:25:32;9.10;99.90
19522;DHT22;9905;52.126;5.596;2023-12-20T15:27:59;9.10;99.90
19522;DHT22;9905;52.126;5.596;2023-12-20T15:30:29;9.00;99.90
19522;DHT22;9905;52.126;5.596;2023-12-20T15:32:56;9.00;99.90
19522;DHT22;9905;52.126;5.596;2023-12-20T15:35:23;9.00;99.90
19522;DHT22;9905;52.126;5.596;2023-12-20T15:37:50;8.90;99.90
19522;DHT22;9905;52.126;5.596;2023-12-20T15:40:17;8.90;99.90
19522;DHT22;9905;52.126;5.596;2023-12-20T15:42:44;8.90;99.90
19522;DHT22;9905;52.126;5.596;2023-12-20T15:45:11;8.90;99.90
19522;DHT22;9905;52.126;5.596;2023-12-20T15:47:39;8.90;99.90
19522;DHT22;9905;52.126;5.596;2023-12-20T15:50:06;8.90;99.90
19522;DHT22;9905;52.126;5.596;2023-12-20T15:52:34;8.90;99.90
19522;DHT22;9905;52.126;5.596;2023-12-20T15:55:02;8.90;99.90
19522;DHT22;9905;52.126;5.596;2023-12-20T15:57:29;8.90;99.90
19522;DHT22;9905;52.126;5.596;2023-12-20T15:59:56;8.80;99.90
19522;DHT22;9905;52.126;5.596;2023-12-20T16:02:23;8.80;99.90